createdAt,value
2018-10-01T00:01:15.059Z,3.87
2018-10-01T00:03:44.263Z,4.50
2018-10-01T00:06:13.743Z,4.43
2018-10-01T00:08:42.920Z,5.03
2018-10-01T00:11:12.623Z,3.90
2018-10-01T00:13:41.871Z,4.50
2018-10-01T00:16:11.068Z,5.10
2018-10-01T00:18:40.370Z,3.73
2018-10-01T00:21:14.935Z,4.00
2018-10-01T00:23:44.248Z,4.00
2018-10-01T00:26:13.435Z,4.10
2018-10-01T00:28:42.598Z,3.80
2018-10-01T00:31:11.812Z,3.50
2018-10-01T00:33:40.996Z,3.87
2018-10-01T00:36:10.186Z,3.67
2018-10-01T00:38:39.755Z,4.70
2018-10-01T00:41:08.935Z,4.23
2018-10-01T00:43:38.132Z,4.93
2018-10-01T00:46:07.368Z,5.00
2018-10-01T00:48:36.792Z,4.30
2018-10-01T00:51:06.034Z,3.97
2018-10-01T00:53:35.244Z,4.93
2018-10-01T00:56:04.431Z,4.20
2018-10-01T00:58:34.093Z,4.50
2018-10-01T01:01:03.535Z,3.80
2018-10-01T01:03:32.724Z,4.30
2018-10-01T01:06:01.908Z,4.70
2018-10-01T01:08:31.099Z,4.07
2018-10-01T01:11:00.744Z,4.17
2018-10-01T01:13:29.935Z,4.23
2018-10-01T01:15:59.192Z,4.47
2018-10-01T01:18:28.448Z,4.73
2018-10-01T01:20:57.679Z,4.80
2018-10-01T01:23:27.228Z,5.23
2018-10-01T01:25:56.403Z,3.57
2018-10-01T01:28:25.635Z,3.87
2018-10-01T01:30:54.924Z,4.30
2018-10-01T01:33:24.108Z,4.07
2018-10-01T01:35:53.300Z,3.80
2018-10-01T01:38:22.490Z,3.70
2018-10-01T01:40:51.752Z,3.30
2018-10-01T01:43:20.907Z,3.50
2018-10-01T01:45:50.175Z,3.43
2018-10-01T01:48:19.368Z,4.10
2018-10-01T01:50:48.577Z,4.00
2018-10-01T01:53:17.851Z,3.77
2018-10-01T01:55:47.085Z,4.17
2018-10-01T01:58:16.279Z,4.57
2018-10-01T02:00:46.075Z,4.00
2018-10-01T02:03:15.247Z,4.13
2018-10-01T02:05:44.436Z,3.70
2018-10-01T02:08:14.087Z,3.67
2018-10-01T02:10:43.268Z,3.53
2018-10-01T02:13:12.451Z,4.27
2018-10-01T02:15:41.743Z,4.17
2018-10-01T02:18:11.076Z,4.00
2018-10-01T02:20:40.257Z,4.10
2018-10-01T02:23:09.472Z,4.40
2018-10-01T02:25:38.678Z,4.50
2018-10-01T02:28:07.852Z,4.17
2018-10-01T02:30:37.493Z,4.53
2018-10-01T02:33:06.743Z,4.30
2018-10-01T02:35:35.924Z,4.30
2018-10-01T02:38:05.175Z,4.50
2018-10-01T02:40:34.410Z,4.27
2018-10-01T02:43:03.591Z,5.20
2018-10-01T02:45:32.792Z,4.57
2018-10-01T02:48:01.968Z,4.47
2018-10-01T02:50:31.164Z,4.53
2018-10-01T02:53:05.639Z,4.70
2018-10-01T02:55:34.819Z,4.33
2018-10-01T02:58:04.011Z,4.93
2018-10-01T03:00:33.228Z,4.50
2018-10-01T03:03:02.774Z,4.40
2018-10-01T03:05:32.174Z,4.80
2018-10-01T03:08:01.397Z,4.47
2018-10-01T03:10:30.591Z,4.50
2018-10-01T03:12:59.762Z,4.33
2018-10-01T03:15:29.216Z,4.80
2018-10-01T03:17:58.566Z,4.30
2018-10-01T03:20:27.782Z,4.43
2018-10-01T03:22:57.000Z,3.73
2018-10-01T03:25:26.202Z,3.83
2018-10-01T03:27:55.404Z,4.87
2018-10-01T03:30:24.609Z,4.87
2018-10-01T03:32:53.788Z,4.67
2018-10-01T03:35:22.952Z,5.20
2018-10-01T03:37:52.328Z,5.27
2018-10-01T03:40:21.519Z,3.77
2018-10-01T03:42:51.140Z,3.97
2018-10-01T03:45:20.348Z,4.53
2018-10-01T03:47:49.870Z,5.10
2018-10-01T03:50:19.065Z,4.33
2018-10-01T03:52:48.348Z,3.70
2018-10-01T03:55:17.529Z,4.57
2018-10-01T03:57:46.715Z,3.60
2018-10-01T04:00:16.323Z,4.47
2018-10-01T04:02:45.516Z,4.67
2018-10-01T04:05:15.128Z,4.60
2018-10-01T04:07:44.327Z,4.03
2018-10-01T04:10:13.496Z,3.73
2018-10-01T04:12:42.671Z,4.70
2018-10-01T04:15:11.870Z,4.17
2018-10-01T04:17:41.049Z,4.50
2018-10-01T04:20:10.224Z,4.43
2018-10-01T04:22:40.659Z,4.57
2018-10-01T04:25:10.835Z,4.63
2018-10-01T04:27:40.020Z,4.40
2018-10-01T04:30:10.993Z,5.40
2018-10-01T04:32:40.212Z,4.50
2018-10-01T04:35:09.839Z,3.80
2018-10-01T04:37:39.062Z,4.63
2018-10-01T04:40:08.330Z,4.00
2018-10-01T04:42:37.507Z,3.93
2018-10-01T04:45:06.844Z,4.90
2018-10-01T04:47:36.012Z,4.77
2018-10-01T04:50:05.779Z,5.20
2018-10-01T04:52:35.052Z,5.00
2018-10-01T04:55:04.708Z,5.20
2018-10-01T04:57:33.912Z,5.80
2018-10-01T05:00:03.263Z,4.43
2018-10-01T05:02:32.460Z,4.97
2018-10-01T05:05:01.645Z,4.17
2018-10-01T05:07:31.440Z,5.63
2018-10-01T05:10:00.655Z,5.13
2018-10-01T05:12:29.891Z,4.93
2018-10-01T05:14:59.109Z,4.97
2018-10-01T05:17:28.278Z,5.00
2018-10-01T05:19:57.468Z,5.23
2018-10-01T05:22:26.749Z,5.30
2018-10-01T05:24:56.474Z,5.77
2018-10-01T05:27:25.902Z,5.83
2018-10-01T05:29:55.307Z,4.70
2018-10-01T05:32:24.512Z,5.20
2018-10-01T05:34:53.855Z,5.67
2018-10-01T05:37:23.171Z,5.43
2018-10-01T05:39:52.330Z,4.83
2018-10-01T05:42:21.504Z,5.20
2018-10-01T05:44:50.743Z,5.80
2018-10-01T05:47:19.928Z,5.17
2018-10-01T05:49:49.099Z,4.03
2018-10-01T05:52:18.639Z,6.70
2018-10-01T05:54:47.788Z,6.57
2018-10-01T05:57:16.962Z,6.93
2018-10-01T05:59:46.171Z,6.20
2018-10-01T06:02:15.428Z,6.00
2018-10-01T06:04:44.624Z,6.37
2018-10-01T06:07:13.859Z,6.23
2018-10-01T06:09:43.416Z,5.80
2018-10-01T06:12:12.724Z,5.60
2018-10-01T06:14:42.273Z,4.67
2018-10-01T06:17:11.536Z,5.80
2018-10-01T06:19:40.783Z,5.30
2018-10-01T06:22:10.024Z,6.13
2018-10-01T06:24:39.208Z,6.07
2018-10-01T06:27:08.741Z,5.90
2018-10-01T06:29:37.940Z,5.73
2018-10-01T06:32:07.144Z,5.70
2018-10-01T06:34:36.355Z,6.33
2018-10-01T06:37:11.401Z,6.20
2018-10-01T06:39:45.230Z,6.43
2018-10-01T06:42:17.325Z,6.10
2018-10-01T06:44:49.264Z,6.50
2018-10-01T06:47:24.279Z,6.60
2018-10-01T06:49:54.515Z,5.77
2018-10-01T06:52:29.191Z,6.07
2018-10-01T06:55:01.660Z,6.40
2018-10-01T06:57:31.953Z,7.20
2018-10-01T07:00:03.603Z,5.63
2018-10-01T07:02:34.564Z,6.03
2018-10-01T07:05:05.981Z,5.07
2018-10-01T07:07:38.778Z,5.27
2018-10-01T07:10:09.841Z,6.30
2018-10-01T07:12:39.358Z,6.23
2018-10-01T07:15:08.551Z,6.70
2018-10-01T07:17:38.796Z,6.90
2018-10-01T07:20:08.068Z,5.87
2018-10-01T07:22:37.311Z,7.30
2018-10-01T07:25:06.749Z,7.30
2018-10-01T07:27:36.215Z,5.93
2018-10-01T07:30:07.414Z,6.23
2018-10-01T07:32:36.810Z,7.47
2018-10-01T07:35:06.622Z,6.67
2018-10-01T07:37:35.851Z,7.93
2018-10-01T07:40:05.077Z,6.67
2018-10-01T07:42:34.476Z,6.67
2018-10-01T07:45:03.844Z,5.90
2018-10-01T07:47:33.152Z,6.70
2018-10-01T07:50:07.360Z,7.30
2018-10-01T07:52:36.810Z,7.63
2018-10-01T07:55:06.090Z,7.50
2018-10-01T07:57:35.654Z,7.60
2018-10-01T08:00:04.966Z,6.77
2018-10-01T08:02:34.256Z,6.63
2018-10-01T08:05:03.487Z,7.70
2018-10-01T08:07:32.924Z,8.13
2018-10-01T08:10:02.404Z,7.13
2018-10-01T08:12:38.312Z,8.83
2018-10-01T08:15:11.225Z,7.57
2018-10-01T08:17:46.140Z,8.60
2018-10-01T08:20:18.139Z,7.50
2018-10-01T08:22:55.781Z,7.20
2018-10-01T08:25:31.747Z,10.67
2018-10-01T08:28:02.890Z,8.90
2018-10-01T08:30:39.654Z,6.40
2018-10-01T08:33:10.727Z,6.23
2018-10-01T08:38:53.359Z,9.40
2018-10-01T08:41:28.216Z,10.27
2018-10-01T08:44:05.125Z,8.83
2018-10-01T08:46:35.755Z,8.57
2018-10-01T08:50:17.485Z,8.10
2018-10-01T08:52:53.511Z,9.10
2018-10-01T08:55:24.402Z,7.83
2018-10-01T08:57:53.607Z,7.73
2018-10-01T09:00:37.613Z,7.13
2018-10-01T09:03:11.593Z,8.10
2018-10-01T09:05:47.021Z,6.77
2018-10-01T09:08:21.355Z,8.00
2018-10-01T09:10:57.731Z,6.07
2018-10-01T09:13:31.489Z,7.07
2018-10-01T09:16:04.815Z,6.93
2018-10-01T09:18:40.876Z,5.93
2018-10-01T09:21:13.602Z,6.13
2018-10-01T09:23:43.815Z,6.27
2018-10-01T09:26:14.999Z,5.60
2018-10-01T09:28:44.494Z,5.10
2018-10-01T09:31:14.736Z,4.77
2018-10-01T09:33:46.968Z,5.40
2018-10-01T09:36:17.120Z,3.90
2018-10-01T09:38:50.083Z,5.23
2018-10-01T09:41:23.249Z,3.60
2018-10-01T09:43:54.650Z,3.87
2018-10-01T09:46:25.269Z,4.60
2018-10-01T09:48:55.647Z,4.13
2018-10-01T09:51:30.982Z,4.37
2018-10-01T09:54:02.425Z,3.43
2018-10-01T09:56:32.634Z,4.37
2018-10-01T09:59:06.959Z,3.80
2018-10-01T10:01:39.155Z,3.23
2018-10-01T10:04:09.311Z,4.10
2018-10-01T10:06:38.627Z,3.70
2018-10-01T10:09:10.084Z,3.67
2018-10-01T10:11:39.571Z,3.73
2018-10-01T10:14:09.479Z,3.00
2018-10-01T10:16:38.842Z,2.33
2018-10-01T10:19:08.206Z,2.80
2018-10-01T10:21:37.435Z,2.43
2018-10-01T10:24:09.024Z,2.70
2018-10-01T10:26:38.711Z,2.73
2018-10-01T10:29:08.116Z,3.50
2018-10-01T10:31:37.533Z,2.93
2018-10-01T10:34:08.100Z,2.70
2018-10-01T10:36:37.356Z,2.20
2018-10-01T10:39:10.025Z,2.27
2018-10-01T10:41:39.275Z,2.60
2018-10-01T10:44:08.498Z,3.30
2018-10-01T10:46:37.659Z,2.30
2018-10-01T10:49:07.009Z,2.77
2018-10-01T10:51:36.440Z,2.33
2018-10-01T10:54:12.189Z,3.00
2018-10-01T10:56:41.566Z,3.10
2018-10-01T10:59:10.847Z,3.10
2018-10-01T11:01:40.171Z,2.70
2018-10-01T11:04:09.434Z,2.70
2018-10-01T11:06:42.325Z,2.80
2018-10-01T11:09:15.406Z,2.43
2018-10-01T11:11:48.672Z,2.90
2018-10-01T11:14:25.722Z,2.50
2018-10-01T11:16:54.877Z,2.77
2018-10-01T11:19:24.203Z,2.20
2018-10-01T11:22:01.097Z,2.60
2018-10-01T11:24:33.719Z,2.13
2018-10-01T11:27:03.381Z,2.73
2018-10-01T11:29:32.876Z,2.87
2018-10-01T11:32:02.273Z,2.13
2018-10-01T11:34:31.744Z,2.73
2018-10-01T11:37:00.819Z,2.13
2018-10-01T11:39:30.065Z,1.60
2018-10-01T11:41:59.459Z,1.73
2018-10-01T11:44:28.746Z,2.17
2018-10-01T11:46:59.812Z,2.40
2018-10-01T11:49:30.844Z,2.57
2018-10-01T11:52:00.382Z,1.83
2018-10-01T11:54:29.974Z,2.20
2018-10-01T11:57:00.365Z,2.33
2018-10-01T11:59:29.639Z,1.63
2018-10-01T12:01:59.180Z,1.83
2018-10-01T12:04:28.843Z,2.23
2018-10-01T12:06:58.040Z,2.17
2018-10-01T12:09:27.635Z,2.30
2018-10-01T12:11:57.736Z,1.97
2018-10-01T12:14:27.367Z,2.17
2018-10-01T12:16:57.536Z,1.97
2018-10-01T12:19:27.334Z,2.17
2018-10-01T12:21:56.518Z,1.73
2018-10-01T12:24:25.728Z,2.07
2018-10-01T12:26:55.045Z,1.87
2018-10-01T12:29:24.408Z,2.10
2018-10-01T12:31:54.294Z,1.60
2018-10-01T12:34:23.792Z,2.43
2018-10-01T12:36:53.015Z,1.80
2018-10-01T12:39:22.411Z,2.93
2018-10-01T12:41:51.752Z,3.13
2018-10-01T12:44:22.112Z,2.20
2018-10-01T12:46:52.962Z,1.90
2018-10-01T12:49:22.451Z,2.10
2018-10-01T12:51:51.636Z,2.43
2018-10-01T12:54:20.900Z,2.37
2018-10-01T12:56:50.237Z,2.13
2018-10-01T12:59:19.495Z,2.97
2018-10-01T13:01:48.647Z,2.80
2018-10-01T13:04:17.988Z,3.00
2018-10-01T13:06:47.289Z,2.87
2018-10-01T13:09:16.429Z,2.30
2018-10-01T13:11:45.636Z,2.50
2018-10-01T13:14:14.820Z,2.70
2018-10-01T13:16:44.223Z,3.00
2018-10-01T13:19:13.403Z,2.67
2018-10-01T13:21:42.588Z,2.03
2018-10-01T13:24:11.876Z,2.40
2018-10-01T13:26:41.504Z,2.70
2018-10-01T13:29:10.757Z,2.27
2018-10-01T13:31:39.987Z,2.30
2018-10-01T13:34:09.195Z,2.90
2018-10-01T13:36:38.425Z,2.40
2018-10-01T13:39:09.424Z,3.00
2018-10-01T13:41:39.143Z,2.43
2018-10-01T13:44:08.567Z,3.03
2018-10-01T13:46:37.841Z,2.50
2018-10-01T13:49:07.064Z,2.80
2018-10-01T13:51:36.280Z,2.27
2018-10-01T13:54:05.763Z,2.73
2018-10-01T13:56:34.920Z,2.93
2018-10-01T13:59:04.737Z,3.07
2018-10-01T14:01:34.514Z,1.93
2018-10-01T14:04:04.267Z,2.63
2018-10-01T14:06:33.619Z,2.40
2018-10-01T14:09:03.071Z,2.40
2018-10-01T14:11:32.309Z,2.67
2018-10-01T14:14:01.606Z,2.87
2018-10-01T14:16:31.747Z,2.80
2018-10-01T14:19:03.277Z,2.83
2018-10-01T14:21:32.696Z,3.07
2018-10-01T14:24:02.067Z,2.67
2018-10-01T14:26:31.500Z,3.00
2018-10-01T14:29:00.751Z,3.00
2018-10-01T14:31:29.927Z,2.80
2018-10-01T14:33:59.111Z,3.50
2018-10-01T14:36:28.374Z,2.97
2018-10-01T14:38:58.088Z,2.67
2018-10-01T14:41:27.496Z,2.60
2018-10-01T14:43:57.015Z,2.60
2018-10-01T14:46:26.892Z,2.30
2018-10-01T14:48:56.272Z,3.00
2018-10-01T14:51:25.471Z,3.40
2018-10-01T14:53:54.731Z,4.03
2018-10-01T14:56:23.955Z,3.23
2018-10-01T14:58:54.331Z,3.87
2018-10-01T15:01:24.323Z,3.30
2018-10-01T15:03:53.853Z,3.20
2018-10-01T15:06:23.544Z,3.57
2018-10-01T15:08:53.920Z,3.43
2018-10-01T15:11:23.150Z,3.63
2018-10-01T15:13:52.467Z,3.57
2018-10-01T15:16:21.662Z,3.23
2018-10-01T15:18:51.276Z,2.80
2018-10-01T15:21:20.459Z,3.60
2018-10-01T15:23:49.815Z,3.23
2018-10-01T15:26:18.979Z,2.80
2018-10-01T15:28:59.120Z,2.63
2018-10-01T15:31:32.215Z,2.20
2018-10-01T15:34:05.686Z,2.20
2018-10-01T15:36:40.560Z,2.63
2018-10-01T15:39:13.809Z,2.87
2018-10-01T15:41:46.226Z,2.53
2018-10-01T15:44:20.212Z,2.50
2018-10-01T15:46:51.410Z,2.57
2018-10-01T15:49:23.496Z,2.20
2018-10-01T15:51:54.364Z,2.50
2018-10-01T15:54:23.524Z,2.23
2018-10-01T15:56:52.733Z,2.40
2018-10-01T15:59:21.924Z,2.50
2018-10-01T16:01:51.105Z,2.10
2018-10-01T16:04:20.723Z,2.10
2018-10-01T16:06:49.891Z,3.27
2018-10-01T16:09:19.068Z,3.50
2018-10-01T16:11:48.268Z,3.33
2018-10-01T16:14:17.467Z,2.60
2018-10-01T16:16:46.660Z,2.83
2018-10-01T16:19:16.303Z,2.30
2018-10-01T16:21:45.500Z,11.10
2018-10-01T16:24:14.681Z,4.17
2018-10-01T16:26:44.440Z,3.03
2018-10-01T16:29:13.764Z,3.30
2018-10-01T16:31:43.065Z,2.50
2018-10-01T16:34:12.461Z,1.73
2018-10-01T16:36:42.952Z,2.03
2018-10-01T16:39:13.252Z,2.30
2018-10-01T16:41:42.731Z,1.80
2018-10-01T16:44:12.029Z,2.30
2018-10-01T16:46:41.292Z,2.87
2018-10-01T16:49:12.875Z,2.13
2018-10-01T16:51:42.476Z,2.10
2018-10-01T16:54:12.912Z,2.20
2018-10-01T16:56:42.220Z,2.00
2018-10-01T16:59:11.408Z,2.30
2018-10-01T17:01:40.597Z,2.13
2018-10-01T17:04:12.098Z,2.20
2018-10-01T17:06:41.291Z,1.80
2018-10-01T17:09:12.739Z,1.90
2018-10-01T17:11:42.043Z,2.03
2018-10-01T17:14:11.220Z,2.00
2018-10-01T17:16:40.416Z,1.67
2018-10-01T17:19:09.607Z,1.67
2018-10-01T17:21:38.940Z,1.23
2018-10-01T17:24:08.155Z,1.77
2018-10-01T17:26:37.784Z,1.60
2018-10-01T17:29:07.156Z,2.10
2018-10-01T17:31:36.375Z,2.00
2018-10-01T17:34:06.031Z,1.87
2018-10-01T17:36:35.673Z,2.10
2018-10-01T17:39:07.832Z,2.50
2018-10-01T17:41:37.131Z,2.33
2018-10-01T17:44:06.639Z,2.03
2018-10-01T17:46:36.496Z,1.40
2018-10-01T17:49:05.731Z,1.80
2018-10-01T17:51:34.961Z,1.50
2018-10-01T17:54:04.179Z,1.10
2018-10-01T17:56:33.347Z,1.50
2018-10-01T17:59:02.572Z,1.20
2018-10-01T18:01:31.779Z,1.50
2018-10-01T18:04:01.568Z,1.30
2018-10-01T18:06:30.736Z,1.40
2018-10-01T18:09:00.210Z,1.10
2018-10-01T18:11:29.387Z,1.30
2018-10-01T18:13:58.568Z,1.27
2018-10-01T18:16:27.756Z,1.50
2018-10-01T18:18:56.936Z,1.30
2018-10-01T18:21:26.829Z,1.10
2018-10-01T18:23:56.111Z,1.50
2018-10-01T18:26:25.243Z,1.37
2018-10-01T18:28:54.680Z,1.30
2018-10-01T18:31:24.219Z,1.30
2018-10-01T18:33:53.419Z,1.20
2018-10-01T18:36:22.604Z,1.37
2018-10-01T18:38:51.807Z,1.20
2018-10-01T18:41:21.004Z,1.23
2018-10-01T18:43:50.390Z,1.50
2018-10-01T18:46:19.454Z,1.20
2018-10-01T18:48:48.632Z,1.53
2018-10-01T18:51:17.818Z,1.43
2018-10-01T18:53:47.338Z,1.30
2018-10-01T18:56:16.491Z,1.30
2018-10-01T18:58:45.663Z,1.73
2018-10-01T19:01:14.866Z,1.37
2018-10-01T19:03:44.028Z,1.10
2018-10-01T19:06:13.244Z,1.03
2018-10-01T19:08:42.408Z,1.70
2018-10-01T19:11:11.607Z,1.30
2018-10-01T19:13:40.811Z,1.50
2018-10-01T19:16:10.204Z,1.40
2018-10-01T19:18:39.366Z,1.20
2018-10-01T19:21:08.567Z,1.13
2018-10-01T19:23:38.332Z,1.17
2018-10-01T19:26:07.592Z,1.20
2018-10-01T19:28:36.751Z,1.37
2018-10-01T19:31:05.991Z,1.30
2018-10-01T19:33:35.188Z,1.40
2018-10-01T19:36:04.442Z,1.53
2018-10-01T19:38:34.125Z,1.27
2018-10-01T19:41:03.364Z,1.53
2018-10-01T19:43:32.472Z,1.50
2018-10-01T19:46:01.703Z,1.43
2018-10-01T19:48:30.878Z,1.40
2018-10-01T19:51:00.389Z,1.53
2018-10-01T19:53:29.547Z,1.60
2018-10-01T19:55:58.743Z,1.50
2018-10-01T19:58:27.915Z,1.90
2018-10-01T20:00:57.200Z,2.00
2018-10-01T20:03:27.253Z,7.77
2018-10-01T20:05:56.335Z,5.27
2018-10-01T20:08:25.528Z,1.33
2018-10-01T20:10:54.810Z,1.67
2018-10-01T20:13:23.987Z,1.57
2018-10-01T20:15:53.188Z,1.77
2018-10-01T20:18:22.359Z,1.70
2018-10-01T20:20:51.601Z,1.80
2018-10-01T20:23:20.804Z,1.70
2018-10-01T20:25:50.859Z,1.70
2018-10-01T20:28:20.109Z,2.30
2018-10-01T20:30:49.218Z,2.00
2018-10-01T20:33:18.382Z,2.70
2018-10-01T20:35:47.640Z,1.90
2018-10-01T20:38:16.932Z,2.30
2018-10-01T20:40:46.086Z,2.07
2018-10-01T20:43:15.256Z,1.80
2018-10-01T20:45:44.705Z,2.33
2018-10-01T20:48:14.121Z,2.60
2018-10-01T20:50:43.283Z,1.70
2018-10-01T20:53:12.533Z,2.07
2018-10-01T20:55:41.672Z,1.80
2018-10-01T20:58:10.883Z,2.00
2018-10-01T21:00:40.107Z,2.30
2018-10-01T21:03:09.283Z,2.20
2018-10-01T21:05:38.464Z,2.27
2018-10-01T21:08:08.033Z,2.37
2018-10-01T21:10:37.395Z,2.20
2018-10-01T21:13:06.612Z,2.80
2018-10-01T21:15:36.231Z,2.20
2018-10-01T21:18:05.584Z,2.70
2018-10-01T21:20:34.792Z,2.07
2018-10-01T21:23:04.012Z,2.03
2018-10-01T21:25:33.220Z,2.80
2018-10-01T21:28:02.806Z,3.40
2018-10-01T21:30:32.348Z,2.50
2018-10-01T21:33:01.512Z,2.10
2018-10-01T21:35:30.978Z,1.97
2018-10-01T21:38:00.191Z,2.00
2018-10-01T21:40:29.387Z,2.07
2018-10-01T21:42:58.580Z,2.43
2018-10-01T21:45:27.804Z,3.90
2018-10-01T21:47:56.976Z,2.60
2018-10-01T21:50:26.156Z,2.60
2018-10-01T21:52:55.603Z,3.00
2018-10-01T21:55:24.800Z,2.93
2018-10-01T21:57:54.093Z,2.77
2018-10-01T22:00:23.351Z,2.77
2018-10-01T22:02:52.527Z,2.80
2018-10-01T22:05:21.707Z,2.53
2018-10-01T22:07:50.895Z,3.53
2018-10-01T22:10:20.067Z,2.50
2018-10-01T22:12:49.236Z,3.07
2018-10-01T22:15:18.884Z,2.50
2018-10-01T22:17:48.018Z,2.50
2018-10-01T22:20:17.201Z,2.00
2018-10-01T22:22:46.391Z,2.50
2018-10-01T22:25:15.579Z,3.47
2018-10-01T22:27:44.775Z,2.80
2018-10-01T22:30:14.747Z,3.67
2018-10-01T22:32:44.063Z,2.20
2018-10-01T22:35:13.241Z,1.97
2018-10-01T22:37:42.694Z,2.80
2018-10-01T22:40:12.196Z,2.97
2018-10-01T22:42:41.424Z,2.27
2018-10-01T22:45:10.591Z,2.30
2018-10-01T22:47:39.760Z,2.50
2018-10-01T22:50:08.951Z,2.77
2018-10-01T22:52:38.187Z,2.33
2018-10-01T22:55:07.453Z,3.00
2018-10-01T22:57:36.615Z,3.30
2018-10-01T23:00:05.892Z,3.07
2018-10-01T23:02:35.104Z,3.10
2018-10-01T23:05:04.327Z,3.50
2018-10-01T23:07:33.753Z,2.80
2018-10-01T23:10:03.227Z,3.00
2018-10-01T23:12:32.394Z,3.23
2018-10-01T23:15:01.600Z,2.90
2018-10-01T23:17:30.783Z,3.60
2018-10-01T23:19:59.951Z,2.80
2018-10-01T23:22:29.379Z,2.73
2018-10-01T23:24:58.683Z,3.40
2018-10-01T23:27:27.852Z,3.27
2018-10-01T23:29:57.346Z,2.80
2018-10-01T23:32:26.891Z,3.40
2018-10-01T23:34:56.094Z,3.50
2018-10-01T23:37:25.349Z,3.03
2018-10-01T23:39:54.585Z,3.60
2018-10-01T23:42:23.808Z,2.60
2018-10-01T23:44:53.380Z,2.90
2018-10-01T23:47:22.592Z,3.30
2018-10-01T23:49:51.852Z,3.10
2018-10-01T23:52:21.113Z,3.20
2018-10-01T23:54:50.347Z,3.13
2018-10-01T23:57:19.577Z,3.57
2018-10-01T23:59:48.852Z,3.90
